»·PEaware :: DAL1862 KPSP-KSAN

DAL1862 :: KPSP-KSAN

FLIGHT INFORMATION

Flight Status: Arrived
Operator:
Delta Air Lines
More flights by this operator :: More flights under this callsign
Pilot: Eric G. (5941)
Aircraft: EMBRAER EMB-190/195
(E190)
More flights by this aircraft type
Origin: KPSP Palm Springs Intl
United States
Destination: KSAN San Diego Intl-Lindbergh
United States
More flights between these airports :: More routes between these airports
Route: +TRM6 TRM V514 MZB
File this flight plan on PilotEdge
Remarks:
Altitude:
(Current/Filed)
20,000ft
Speed:
(Current/Filed)
300kts
Departed: 30-Sep-18 07:22 AM
Arrived: 30-Sep-18 07:53 AM
Distance/Time
Traveled:
74nm/0:31
Distance/Time
To Go:
Arrived

Flight Plot

Page will automatically refresh every two minutes.


Map Options




Map Legend


Flown Route
Filed Route
Departure Airport
Arrival Airport
Navaid (VOR, NDB)
Fix

Horizontal Profiles

Position Reports

Time Latitude Longitude Heading Altitude Ground
Speed
30-Sep-18 07:02 33.823914 -116.506499 189 484ft 0kts
30-Sep-18 07:03 33.824309 -116.506414 189 484ft 2kts
30-Sep-18 07:04 33.824539 -116.506364 189 484ft 0kts
30-Sep-18 07:05 33.824537 -116.506365 189 484ft 0kts
30-Sep-18 07:06 33.824536 -116.506365 189 484ft 0kts
30-Sep-18 07:07 33.824534 -116.506365 189 484ft 0kts
30-Sep-18 07:08 33.824533 -116.506366 189 484ft 0kts
30-Sep-18 07:09 33.824531 -116.506366 189 484ft 0kts
30-Sep-18 07:10 33.824530 -116.506366 189 484ft 0kts
30-Sep-18 07:11 33.824469 -116.506317 107 484ft 0kts
30-Sep-18 07:12 33.824468 -116.506315 107 484ft 0kts
30-Sep-18 07:13 33.824468 -116.506314 107 484ft 0kts
30-Sep-18 07:14 33.824467 -116.506311 107 484ft 0kts
30-Sep-18 07:15 33.822900 -116.503720 134 484ft 11kts
30-Sep-18 07:16 33.820113 -116.501215 141 484ft 17kts
30-Sep-18 07:17 33.818518 -116.499166 87 484ft 0kts
30-Sep-18 07:18 33.818518 -116.499164 87 484ft 0kts
30-Sep-18 07:19 33.818518 -116.499162 87 484ft 0kts
30-Sep-18 07:20 33.818518 -116.499160 87 484ft 0kts
30-Sep-18 07:21 33.818518 -116.499158 87 484ft 0kts
30-Sep-18 07:22 33.818523 -116.499007 87 484ft 7kts
30-Sep-18 07:23 33.818967 -116.498135 321 484ft 0kts
30-Sep-18 07:24 33.843895 -116.520270 323 1129ft 180kts
30-Sep-18 07:25 33.886338 -116.553764 328 4546ft 183kts
30-Sep-18 07:26 33.928880 -116.528720 85 7178ft 215kts
30-Sep-18 07:27 33.905371 -116.471337 142 9930ft 191kts
30-Sep-18 07:28 33.862732 -116.426302 136 12153ft 224kts
30-Sep-18 07:29 33.819389 -116.370361 140 14610ft 235kts
30-Sep-18 07:30 33.771603 -116.315102 143 16884ft 243kts
30-Sep-18 07:31 33.719989 -116.259696 145 18861ft 252kts
30-Sep-18 07:32 33.665692 -116.205262 145 20311ft 269kts
30-Sep-18 07:33 33.592566 -116.175651 197 19958ft 312kts
30-Sep-18 07:34 33.534847 -116.251424 233 20053ft 328kts
30-Sep-18 07:35 33.461460 -116.319501 206 19880ft 353kts
30-Sep-18 07:36 33.368700 -116.369676 204 19329ft 383kts
30-Sep-18 07:37 33.285125 -116.433031 217 17067ft 331kts
30-Sep-18 07:38 33.217829 -116.499837 220 14555ft 294kts
30-Sep-18 07:39 33.161277 -116.561440 220 12268ft 263kts
30-Sep-18 07:40 33.098498 -116.584685 183 12210ft 244kts
30-Sep-18 07:41 33.026640 -116.588572 183 12218ft 278kts
30-Sep-18 07:42 32.946424 -116.593742 184 10804ft 270kts
30-Sep-18 07:43 32.876794 -116.597844 184 9030ft 229kts
30-Sep-18 07:44 32.813840 -116.601179 183 9032ft 242kts
30-Sep-18 07:45 32.746568 -116.617377 222 8518ft 250kts
30-Sep-18 07:46 32.704190 -116.680714 249 6925ft 244kts
30-Sep-18 07:47 32.686947 -116.748287 252 5374ft 209kts
30-Sep-18 07:48 32.672467 -116.806423 251 5020ft 178kts
30-Sep-18 07:49 32.662099 -116.864140 259 4999ft 189kts
30-Sep-18 07:50 32.667669 -116.927165 280 5188ft 187kts
30-Sep-18 07:51 32.684184 -116.991680 290 4219ft 190kts
30-Sep-18 07:52 32.699232 -117.051674 281 2538ft 181kts
30-Sep-18 07:53 32.713125 -117.107335 288 1332ft 154kts
30-Sep-18 07:54 32.725062 -117.155065 288 549ft 145kts
30-Sep-18 07:55 32.734762 -117.194664 286 22ft 32kts
30-Sep-18 07:56 32.734880 -117.198774 253 22ft 7kts
30-Sep-18 07:57 32.734651 -117.201281 188 22ft 0kts

Navigation Log

Ident Type
Flight plan parsing failed, navigation log unavailable